Obion, Tennessee
Current Conditions -  °F | °C
As of 12:55 PM on Friday 31 Oct 2014 (Local Time) from KUCY Reporting Station
Overcast Overcast  
Wind Chill: 41°   Ceiling: 3200
Heat Index: 48°   Visibility: 10mi
Dew Point: 39°   Wind: 20mph
Humidity: 71%   Direction: 340°NNW
Pressure: 30.13"   Gusts: NA
Location:  36.26°N, 89.19°W
Report Text: KUCY 311755Z AUTO 34017KT 10SM BKN032 OVC039 09/04 A3013 RMK
Loading
Personal Weather Stations






























Interactive Weather Map New forecast layout! Learn more

10-Day Weather Forecast

Advertisements
Track Severe Weather on mobile